Time;durP1;ratioP1;P1;durP2;ratioP2;P2;SDS_P1;SDS_P2;PMS_P1;PMS_P2;Temp;Humidity;BMP_temperature;BMP_pressure;BME280_temperature;BME280_humidity;BME280_pressure;Samples;Min_cycle;Max_cycle;Signal;HPM_P1;HPM_P2
2021/07/04 00:00:25;;;;;;;29.45;20.88;;;18.30;95.50;;;;;;5035492;28;20041;-50
2021/07/04 00:02:54;;;;;;;26.02;19.95;;;18.20;95.60;;;;;;5034685;28;20056;-49
2021/07/04 00:05:23;;;;;;;25.73;20.60;;;18.20;95.60;;;;;;5016042;28;20049;-52
2021/07/04 00:07:49;;;;;;;25.80;20.35;;;18.20;95.60;;;;;;5031243;28;20485;-51
2021/07/04 00:10:21;;;;;;;24.85;19.55;;;18.20;95.70;;;;;;5021354;28;20041;-50
2021/07/04 00:12:48;;;;;;;26.05;20.02;;;18.20;95.80;;;;;;5012452;28;20049;-47
2021/07/04 00:15:16;;;;;;;26.95;20.67;;;18.20;95.80;;;;;;5036661;28;20045;-48
2021/07/04 00:17:42;;;;;;;26.15;20.25;;;18.20;96.10;;;;;;5034605;28;20395;-50
2021/07/04 00:20:11;;;;;;;26.52;20.73;;;18.20;95.90;;;;;;5037684;28;20045;-50
2021/07/04 00:22:38;;;;;;;27.20;21.15;;;18.20;95.90;;;;;;5045667;28;20177;-51
2021/07/04 00:25:07;;;;;;;26.90;21.73;;;18.20;96.10;;;;;;5025355;28;20410;-49
2021/07/04 00:27:33;;;;;;;27.42;21.60;;;18.10;96.00;;;;;;5026131;28;20033;-50
2021/07/04 00:29:59;;;;;;;29.60;21.00;;;18.10;96.30;;;;;;5047225;28;20055;-47
2021/07/04 00:32:25;;;;;;;30.33;21.83;;;18.10;96.10;;;;;;5007045;28;20557;-50
2021/07/04 00:34:51;;;;;;;28.17;21.90;;;18.10;96.20;;;;;;5016316;28;20128;-51
2021/07/04 00:37:17;;;;;;;28.98;22.27;;;18.10;96.20;;;;;;5034066;28;20410;-47
2021/07/04 00:39:42;;;;;;;28.08;21.63;;;18.10;96.20;;;;;;5022344;28;20046;-50
2021/07/04 00:42:13;;;;;;;28.77;22.20;;;18.10;96.30;;;;;;5040605;28;20108;-49
2021/07/04 00:44:40;;;;;;;29.73;23.33;;;18.10;96.30;;;;;;5048771;28;20034;-51
2021/07/04 00:47:06;;;;;;;30.88;22.83;;;18.10;96.30;;;;;;5017613;28;20100;-48
2021/07/04 00:49:32;;;;;;;27.92;22.30;;;18.00;96.40;;;;;;5050904;28;20512;-52
2021/07/04 00:51:59;;;;;;;30.98;22.70;;;18.00;96.40;;;;;;5049782;28;20053;-52
2021/07/04 00:54:25;;;;;;;28.45;22.25;;;18.00;96.30;;;;;;5035412;28;20042;-52
2021/07/04 00:56:51;;;;;;;31.25;23.95;;;18.00;96.40;;;;;;5027466;28;20105;-52
2021/07/04 00:59:18;;;;;;;29.40;22.92;;;18.00;96.50;;;;;;5035334;28;20086;-51
2021/07/04 01:01:43;;;;;;;30.05;24.25;;;18.00;96.50;;;;;;5029343;28;20049;-49
2021/07/04 01:04:10;;;;;;;29.75;23.33;;;18.00;96.60;;;;;;5027260;28;20056;-49
2021/07/04 01:06:36;;;;;;;30.05;24.15;;;18.00;96.60;;;;;;5042350;28;20118;-51
2021/07/04 01:09:02;;;;;;;30.48;23.88;;;18.00;96.60;;;;;;5033873;28;20042;-51
2021/07/04 01:11:28;;;;;;;31.27;23.63;;;18.00;96.60;;;;;;5038838;28;20409;-53
2021/07/04 01:13:54;;;;;;;31.17;23.75;;;17.90;96.50;;;;;;5047161;28;20064;-53
2021/07/04 01:16:20;;;;;;;28.40;21.85;;;17.90;96.50;;;;;;5031314;28;20038;-50
2021/07/04 01:18:46;;;;;;;28.25;22.95;;;17.90;96.50;;;;;;5025461;28;20041;-53
2021/07/04 01:21:12;;;;;;;30.40;22.65;;;17.90;96.50;;;;;;4998244;28;20132;-52
2021/07/04 01:23:38;;;;;;;30.48;24.33;;;18.00;96.60;;;;;;5026939;28;20041;-52
2021/07/04 01:26:04;;;;;;;31.73;24.25;;;17.90;96.50;;;;;;5033385;28;20033;-53
2021/07/04 01:28:30;;;;;;;28.33;23.17;;;17.90;96.50;;;;;;5018741;28;20037;-52
2021/07/04 01:30:58;;;;;;;32.65;23.80;;;17.90;96.50;;;;;;5032942;28;20494;-53
2021/07/04 01:33:25;;;;;;;32.22;24.80;;;17.90;96.50;;;;;;5012195;28;20049;-49
2021/07/04 01:35:51;;;;;;;31.50;24.30;;;17.90;96.50;;;;;;5038594;28;20369;-49
2021/07/04 01:38:16;;;;;;;32.35;24.83;;;17.90;96.50;;;;;;5055497;28;20068;-49
2021/07/04 01:40:44;;;;;;;30.10;24.17;;;17.90;96.60;;;;;;5040996;28;20048;-50
2021/07/04 01:43:10;;;;;;;33.50;25.40;;;17.90;96.60;;;;;;5057864;28;20045;-50
2021/07/04 01:45:37;;;;;;;34.88;25.17;;;17.90;96.70;;;;;;5044281;28;20545;-48
2021/07/04 01:48:03;;;;;;;37.03;25.42;;;17.90;96.70;;;;;;5034103;28;20045;-53
2021/07/04 01:50:33;;;;;;;37.38;26.85;;;17.90;96.80;;;;;;5038342;28;20048;-50
2021/07/04 01:53:00;;;;;;;35.00;25.98;;;17.90;96.80;;;;;;5031844;28;20072;-49
2021/07/04 01:55:25;;;;;;;34.78;25.92;;;17.90;96.80;;;;;;5020199;28;20450;-53
2021/07/04 01:57:53;;;;;;;34.03;26.02;;;17.90;96.80;;;;;;5017372;28;20081;-50
2021/07/04 02:00:23;;;;;;;37.88;26.20;;;17.80;96.80;;;;;;5030385;28;20053;-53
2021/07/04 02:02:53;;;;;;;35.88;26.45;;;17.90;96.90;;;;;;5032421;28;20060;-51
2021/07/04 02:05:20;;;;;;;36.33;26.73;;;17.90;97.00;;;;;;5015270;28;20033;-51
2021/07/04 02:07:47;;;;;;;36.53;27.08;;;17.80;96.90;;;;;;5037877;28;20093;-51
2021/07/04 02:10:34;;;;;;;34.53;26.05;;;17.80;97.00;;;;;;5016587;28;20080;-53
2021/07/04 02:13:00;;;;;;;35.10;26.27;;;17.80;97.10;;;;;;5016533;28;20074;-50
2021/07/04 02:15:31;;;;;;;35.95;27.05;;;17.80;97.10;;;;;;5016946;28;20053;-49
2021/07/04 02:18:02;;;;;;;36.22;27.55;;;17.80;97.10;;;;;;5015469;28;20532;-50
2021/07/04 02:20:34;;;;;;;36.25;26.77;;;17.80;97.10;;;;;;5026813;28;20049;-50
2021/07/04 02:23:15;;;;;;;39.88;26.80;;;17.80;97.10;;;;;;5033394;28;20589;-50
2021/07/04 02:25:44;;;;;;;40.10;27.33;;;17.80;97.20;;;;;;5014966;28;20065;-51
2021/07/04 02:28:12;;;;;;;38.00;26.70;;;17.80;97.20;;;;;;5033082;28;20068;-50
2021/07/04 02:30:39;;;;;;;34.53;25.52;;;17.80;97.40;;;;;;5025253;28;20084;-50
2021/07/04 02:33:07;;;;;;;34.45;26.10;;;17.80;97.10;;;;;;5024986;28;20030;-48
2021/07/04 02:35:38;;;;;;;32.63;25.73;;;17.80;97.20;;;;;;5022653;28;20042;-50
2021/07/04 02:38:05;;;;;;;35.60;25.98;;;17.80;97.30;;;;;;5023870;28;20041;-50
2021/07/04 02:40:32;;;;;;;35.03;26.25;;;17.80;97.30;;;;;;5031234;28;20053;-47
2021/07/04 02:42:59;;;;;;;36.95;26.60;;;17.80;97.30;;;;;;5022981;28;20050;-46
2021/07/04 02:45:25;;;;;;;30.40;24.92;;;17.80;97.30;;;;;;5034496;28;20057;-49
2021/07/04 02:47:51;;;;;;;36.05;26.13;;;17.80;97.30;;;;;;5035433;28;20152;-52
2021/07/04 02:50:21;;;;;;;40.35;26.48;;;17.70;97.50;;;;;;5018584;28;20128;-49
2021/07/04 02:52:52;;;;;;;35.63;25.85;;;17.80;97.40;;;;;;5050039;28;20509;-50
2021/07/04 02:55:19;;;;;;;34.88;26.17;;;17.70;97.40;;;;;;5031251;28;20448;-51
2021/07/04 02:57:45;;;;;;;38.28;26.98;;;17.70;97.40;;;;;;5030920;28;20136;-49
2021/07/04 03:00:13;;;;;;;36.70;27.10;;;17.70;97.40;;;;;;5036212;28;20045;-48
2021/07/04 03:02:43;;;;;;;39.00;27.10;;;17.70;97.50;;;;;;5033162;28;20044;-49
2021/07/04 03:05:13;;;;;;;32.72;24.52;;;17.70;97.50;;;;;;5003187;28;20045;-52
2021/07/04 03:07:39;;;;;;;37.70;27.08;;;17.70;97.40;;;;;;5031429;28;20077;-49
2021/07/04 03:10:12;;;;;;;33.58;26.60;;;17.70;97.40;;;;;;5033173;28;20502;-48
2021/07/04 03:12:38;;;;;;;;;;;17.70;97.40;;;;;;5033531;28;20134;-49
2021/07/04 03:15:09;;;;;;;38.95;26.33;;;17.70;97.40;;;;;;5034469;28;19960;-48
2021/07/04 03:17:36;;;;;;;33.42;25.90;;;17.70;97.40;;;;;;5040063;28;20042;-52
2021/07/04 03:20:04;;;;;;;34.47;24.85;;;17.70;97.40;;;;;;5043518;28;20107;-50
2021/07/04 03:22:30;;;;;;;34.85;25.95;;;17.70;97.40;;;;;;5041779;28;20083;-50
2021/07/04 03:24:57;;;;;;;34.20;25.65;;;17.70;97.40;;;;;;5033449;28;20045;-50
2021/07/04 03:27:23;;;;;;;34.22;25.52;;;17.70;97.50;;;;;;5044867;28;20059;-47
2021/07/04 03:29:49;;;;;;;34.70;25.38;;;17.70;97.50;;;;;;5027528;28;20410;-49
2021/07/04 03:32:14;;;;;;;33.53;25.55;;;17.70;97.60;;;;;;5027567;28;20034;-52
2021/07/04 03:34:40;;;;;;;34.53;25.65;;;17.70;97.60;;;;;;5046416;28;20049;-50
2021/07/04 03:37:06;;;;;;;34.38;25.83;;;17.70;97.50;;;;;;5031330;28;20068;-50
2021/07/04 03:39:32;;;;;;;39.35;25.90;;;17.70;97.50;;;;;;5016572;28;20417;-51
2021/07/04 03:41:58;;;;;;;31.63;24.10;;;17.70;97.50;;;;;;5030795;28;20068;-49
2021/07/04 03:44:25;;;;;;;32.58;24.85;;;17.70;97.50;;;;;;5035839;28;20029;-50
2021/07/04 03:46:52;;;;;;;33.40;25.52;;;17.70;97.60;;;;;;5018450;28;20037;-49
2021/07/04 03:49:18;;;;;;;31.77;24.63;;;17.70;97.50;;;;;;5022119;28;20382;-49
2021/07/04 03:51:44;;;;;;;36.92;26.70;;;17.70;97.50;;;;;;5026327;28;20138;-51
2021/07/04 03:54:10;;;;;;;36.20;25.83;;;17.70;97.50;;;;;;5007337;28;20414;-48
2021/07/04 03:56:36;;;;;;;35.78;25.35;;;17.70;97.60;;;;;;5031598;28;20524;-49
2021/07/04 03:59:02;;;;;;;35.22;25.98;;;17.70;97.60;;;;;;5035621;28;20041;-49
2021/07/04 04:01:27;;;;;;;33.53;24.60;;;17.70;97.60;;;;;;5038543;28;20049;-50
2021/07/04 04:03:53;;;;;;;33.50;24.42;;;17.70;97.60;;;;;;5020003;28;20037;-49
2021/07/04 04:06:20;;;;;;;38.35;24.48;;;17.70;97.60;;;;;;5038098;28;20049;-52
2021/07/04 04:08:47;;;;;;;31.25;23.55;;;17.70;97.60;;;;;;5028053;28;20053;-49
2021/07/04 04:11:13;;;;;;;33.55;24.38;;;17.70;97.60;;;;;;5026521;28;20042;-49
2021/07/04 04:13:39;;;;;;;31.08;23.42;;;17.70;97.60;;;;;;5033509;28;20124;-51
2021/07/04 04:16:06;;;;;;;32.47;24.25;;;17.70;97.50;;;;;;5028669;28;20070;-50
2021/07/04 04:18:37;;;;;;;31.98;23.50;;;17.70;97.60;;;;;;5022909;28;20037;-51
2021/07/04 04:21:07;;;;;;;30.48;22.48;;;17.70;97.50;;;;;;5008838;28;20125;-49
2021/07/04 04:23:34;;;;;;;31.73;23.63;;;17.70;97.60;;;;;;5023070;28;20065;-49
2021/07/04 04:26:01;;;;;;;30.73;22.52;;;17.70;97.70;;;;;;5025395;28;20072;-51
2021/07/04 04:28:26;;;;;;;29.02;22.40;;;17.70;97.60;;;;;;5030421;28;20045;-48
2021/07/04 04:30:52;;;;;;;27.50;21.42;;;17.70;97.60;;;;;;5033615;28;20068;-50
2021/07/04 04:33:18;;;;;;;28.40;22.55;;;17.70;97.50;;;;;;5037080;28;20042;-48
2021/07/04 04:35:44;;;;;;;33.80;22.17;;;17.70;97.50;;;;;;5036307;28;20049;-48
2021/07/04 04:38:10;;;;;;;28.25;22.63;;;17.70;97.50;;;;;;5020376;28;20414;-51
2021/07/04 04:40:36;;;;;;;28.13;21.92;;;17.70;97.40;;;;;;5020129;28;20510;-51
2021/07/04 04:43:02;;;;;;;28.40;21.20;;;17.70;97.50;;;;;;5036718;28;20053;-48
2021/07/04 04:45:28;;;;;;;25.15;20.63;;;17.70;97.40;;;;;;5036380;28;20414;-48
2021/07/04 04:47:54;;;;;;;26.48;21.35;;;17.80;97.50;;;;;;5030804;28;20038;-48
2021/07/04 04:50:20;;;;;;;27.15;20.33;;;17.80;97.40;;;;;;5018849;28;20046;-48
2021/07/04 04:52:46;;;;;;;26.77;20.88;;;17.80;97.40;;;;;;5016866;28;20115;-51
2021/07/04 04:55:12;;;;;;;25.45;19.88;;;17.80;97.40;;;;;;5033317;28;20065;-50
2021/07/04 04:57:38;;;;;;;25.40;19.08;;;17.80;97.30;;;;;;5028117;28;20037;-51
2021/07/04 05:00:07;;;;;;;28.20;20.58;;;17.80;97.40;;;;;;5035519;28;20132;-49
2021/07/04 05:02:33;;;;;;;30.65;22.83;;;17.80;97.40;;;;;;5024279;28;20037;-48
2021/07/04 05:04:59;;;;;;;30.60;21.30;;;17.90;97.40;;;;;;5020630;28;20050;-51
2021/07/04 05:07:25;;;;;;;29.30;21.88;;;17.80;97.30;;;;;;5042104;28;20038;-51
2021/07/04 05:09:50;;;;;;;24.60;20.60;;;17.90;97.30;;;;;;5024921;28;20056;-54
2021/07/04 05:12:16;;;;;;;23.85;17.85;;;17.80;97.40;;;;;;5031089;28;20562;-51
2021/07/04 05:14:42;;;;;;;20.83;18.20;;;17.90;97.30;;;;;;5027907;28;20053;-51
2021/07/04 05:17:08;;;;;;;24.35;18.55;;;17.90;97.30;;;;;;5022091;28;20037;-53
2021/07/04 05:19:34;;;;;;;21.25;17.55;;;17.90;97.30;;;;;;5025595;28;20482;-53
2021/07/04 05:21:59;;;;;;;24.60;17.75;;;17.90;97.30;;;;;;5037002;28;20069;-50
2021/07/04 05:24:26;;;;;;;22.13;17.83;;;17.90;97.30;;;;;;5027333;28;20124;-52
2021/07/04 05:26:51;;;;;;;22.25;18.20;;;17.90;97.30;;;;;;5023750;28;20465;-52
2021/07/04 05:29:17;;;;;;;23.85;18.73;;;17.90;97.20;;;;;;5040361;28;20034;-50
2021/07/04 05:31:43;;;;;;;25.83;19.17;;;17.90;97.20;;;;;;5030234;28;20037;-50
2021/07/04 05:34:09;;;;;;;22.60;18.90;;;17.90;97.30;;;;;;5027115;28;20044;-50
2021/07/04 05:36:34;;;;;;;20.90;17.38;;;17.90;97.30;;;;;;5033820;28;20053;-51
2021/07/04 05:39:00;;;;;;;23.77;17.38;;;17.90;97.30;;;;;;5029570;28;20057;-47
2021/07/04 05:41:26;;;;;;;23.02;17.75;;;17.90;97.20;;;;;;5032344;28;20139;-50
2021/07/04 05:43:52;;;;;;;19.77;16.88;;;17.90;97.20;;;;;;5021658;28;20048;-51
2021/07/04 05:46:18;;;;;;;25.85;17.50;;;17.80;97.30;;;;;;5039795;28;20091;-49
2021/07/04 05:48:45;;;;;;;20.55;16.80;;;17.80;97.30;;;;;;5014437;28;20056;-51
2021/07/04 05:51:12;;;;;;;20.25;16.38;;;17.80;97.40;;;;;;5047306;28;20048;-51
2021/07/04 05:53:38;;;;;;;20.88;17.15;;;17.90;97.40;;;;;;5037332;28;20040;-52
2021/07/04 05:56:03;;;;;;;18.35;16.10;;;17.90;97.40;;;;;;5019769;28;20410;-51
2021/07/04 05:58:29;;;;;;;22.63;17.40;;;17.90;97.50;;;;;;5039975;28;20088;-52
2021/07/04 06:00:55;;;;;;;19.55;15.15;;;18.00;97.50;;;;;;5022354;28;20053;-49
2021/07/04 06:03:21;;;;;;;20.73;15.88;;;18.00;97.50;;;;;;5032850;28;20034;-51
2021/07/04 06:05:47;;;;;;;21.05;16.40;;;18.10;97.50;;;;;;5015828;28;20061;-49
2021/07/04 06:08:13;;;;;;;17.33;14.20;;;18.10;97.50;;;;;;5030388;28;20088;-49
2021/07/04 06:10:40;;;;;;;18.35;14.45;;;18.20;97.50;;;;;;5022782;28;20041;-49
2021/07/04 06:13:07;;;;;;;17.05;13.93;;;18.20;97.30;;;;;;5039735;28;20076;-53
2021/07/04 06:15:32;;;;;;;18.40;14.75;;;18.20;97.20;;;;;;5031276;28;20036;-48
2021/07/04 06:17:59;;;;;;;17.73;14.43;;;18.30;97.30;;;;;;5028324;28;20096;-50
2021/07/04 06:20:24;;;;;;;18.30;14.50;;;18.30;97.30;;;;;;5012206;28;20100;-50
2021/07/04 06:22:53;;;;;;;16.05;13.77;;;18.40;97.30;;;;;;5030465;28;20045;-52
2021/07/04 06:25:19;;;;;;;18.70;14.85;;;18.50;97.30;;;;;;5029231;28;20044;-51
2021/07/04 06:27:45;;;;;;;17.02;13.77;;;18.50;97.30;;;;;;5021581;28;20532;-53
2021/07/04 06:30:14;;;;;;;16.27;13.38;;;18.50;97.20;;;;;;5019157;28;20034;-50
2021/07/04 06:32:41;;;;;;;17.60;14.60;;;18.60;97.20;;;;;;5048588;28;20046;-51
2021/07/04 06:35:09;;;;;;;15.50;13.63;;;18.60;97.10;;;;;;5041724;28;20045;-49
2021/07/04 06:37:36;;;;;;;15.90;13.05;;;18.70;97.10;;;;;;5001649;28;20191;-53
2021/07/04 06:40:05;;;;;;;16.48;13.80;;;18.70;96.90;;;;;;5032816;28;20791;-49
2021/07/04 06:42:30;;;;;;;17.33;14.52;;;18.80;96.90;;;;;;5017885;28;20135;-48
2021/07/04 06:44:56;;;;;;;16.00;13.82;;;18.80;96.90;;;;;;5030538;28;20049;-50
2021/07/04 06:47:22;;;;;;;15.85;12.77;;;18.90;96.90;;;;;;5040260;28;20036;-48
2021/07/04 06:49:48;;;;;;;16.83;13.35;;;19.00;96.80;;;;;;4993672;28;20038;-51
2021/07/04 06:52:14;;;;;;;14.73;12.07;;;19.10;96.80;;;;;;5011526;28;20075;-48
2021/07/04 06:54:40;;;;;;;17.40;13.80;;;19.10;96.30;;;;;;5031115;28;20056;-51
2021/07/04 06:59:50;;;;;;;18.58;14.68;;;19.10;95.80;;;;;;5026842;28;20124;-51
2021/07/04 07:02:16;;;;;;;16.30;14.27;;;19.10;96.00;;;;;;5028865;28;20449;-50
2021/07/04 07:04:42;;;;;;;17.50;13.68;;;19.10;96.00;;;;;;5042540;28;20129;-53
2021/07/04 07:07:09;;;;;;;19.38;15.27;;;19.00;96.10;;;;;;5033738;28;20413;-51
2021/07/04 07:09:35;;;;;;;17.60;15.43;;;19.00;96.10;;;;;;5019821;28;20052;-51
2021/07/04 07:12:00;;;;;;;17.42;15.02;;;18.90;96.20;;;;;;5024817;28;20030;-49
2021/07/04 07:14:27;;;;;;;19.45;15.18;;;19.00;96.10;;;;;;5025209;28;20044;-49
2021/07/04 07:16:52;;;;;;;18.35;14.98;;;19.00;96.00;;;;;;5022680;28;20042;-49
2021/07/04 07:19:18;;;;;;;18.90;15.27;;;19.00;95.90;;;;;;5022934;28;20069;-51
2021/07/04 07:21:43;;;;;;;19.10;15.93;;;18.90;96.10;;;;;;5030270;28;20091;-50
2021/07/04 07:24:09;;;;;;;20.17;15.95;;;18.90;96.10;;;;;;5027675;28;20037;-51
2021/07/04 07:26:35;;;;;;;19.27;15.48;;;18.80;96.00;;;;;;5030535;28;20045;-52
2021/07/04 07:29:01;;;;;;;20.85;16.50;;;18.90;96.20;;;;;;5027294;28;20041;-50
2021/07/04 07:31:27;;;;;;;21.52;17.30;;;18.90;96.10;;;;;;5027151;28;20387;-50
2021/07/04 07:33:53;;;;;;;23.80;18.15;;;18.90;96.30;;;;;;5029525;28;20034;-53
2021/07/04 07:36:19;;;;;;;23.17;18.23;;;18.90;96.30;;;;;;5028685;28;20255;-51
2021/07/04 07:38:45;;;;;;;22.80;17.70;;;18.90;96.40;;;;;;5038184;28;20526;-51
2021/07/04 07:41:10;;;;;;;21.60;17.40;;;19.00;96.40;;;;;;5038831;28;20045;-51
2021/07/04 07:43:36;;;;;;;21.35;18.40;;;19.00;96.40;;;;;;5032548;28;20052;-50
2021/07/04 07:46:02;;;;;;;23.83;18.88;;;19.10;96.10;;;;;;5032929;28;20040;-51
2021/07/04 07:48:27;;;;;;;22.90;18.70;;;19.10;96.20;;;;;;5028818;28;20230;-53
2021/07/04 07:50:53;;;;;;;21.08;17.77;;;19.00;96.10;;;;;;5033439;28;20048;-53
2021/07/04 07:53:19;;;;;;;21.48;18.20;;;19.00;96.10;;;;;;5032774;28;20047;-50
2021/07/04 07:55:44;;;;;;;19.33;16.77;;;19.10;95.90;;;;;;5026332;28;20034;-52
2021/07/04 07:58:10;;;;;;;22.90;19.23;;;19.10;95.80;;;;;;5016285;28;20096;-52
2021/07/04 08:00:36;;;;;;;22.67;19.00;;;19.10;96.00;;;;;;5030374;28;20060;-49
2021/07/04 08:03:02;;;;;;;23.55;20.23;;;19.20;96.00;;;;;;5025075;28;20049;-50
2021/07/04 08:05:28;;;;;;;24.73;19.80;;;19.20;95.80;;;;;;5032279;28;20039;-51
2021/07/04 08:07:53;;;;;;;25.95;20.80;;;19.30;95.80;;;;;;5028266;28;20039;-51
2021/07/04 08:10:19;;;;;;;28.63;22.00;;;19.30;95.60;;;;;;5029421;28;20073;-50
2021/07/04 08:12:45;;;;;;;24.00;20.45;;;19.40;95.70;;;;;;5028046;28;20037;-49
2021/07/04 08:15:12;;;;;;;20.92;18.58;;;19.50;95.70;;;;;;5030433;28;20451;-49
2021/07/04 08:17:38;;;;;;;22.70;19.00;;;19.50;95.50;;;;;;5034573;28;20494;-48
2021/07/04 08:20:05;;;;;;;17.70;15.75;;;19.70;95.60;;;;;;5031492;28;20041;-50
2021/07/04 08:22:31;;;;;;;19.13;16.85;;;19.90;94.40;;;;;;5024687;28;20160;-51
2021/07/04 08:24:56;;;;;;;20.75;16.60;;;20.00;93.80;;;;;;5039610;28;20598;-48
2021/07/04 08:27:22;;;;;;;19.40;17.23;;;20.20;94.30;;;;;;5028668;28;20041;-51
2021/07/04 08:29:48;;;;;;;20.85;18.05;;;20.30;93.60;;;;;;5026762;28;20413;-52
2021/07/04 08:32:14;;;;;;;22.45;20.08;;;20.40;93.20;;;;;;5025720;28;20043;-51
2021/07/04 08:34:39;;;;;;;24.98;20.90;;;20.50;93.20;;;;;;5030705;28;20541;-50
2021/07/04 08:37:05;;;;;;;23.23;20.33;;;20.60;92.70;;;;;;5031711;28;20577;-50
2021/07/04 08:39:31;;;;;;;27.88;22.98;;;20.70;92.10;;;;;;5028506;28;20049;-52
2021/07/04 08:41:57;;;;;;;28.42;22.85;;;20.70;91.90;;;;;;5030662;28;20076;-49
2021/07/04 08:44:23;;;;;;;26.50;23.60;;;20.60;92.10;;;;;;5033219;28;20037;-51
2021/07/04 08:46:49;;;;;;;26.15;22.52;;;20.60;92.20;;;;;;5034519;28;20057;-52
2021/07/04 08:49:15;;;;;;;28.50;24.55;;;20.60;91.90;;;;;;5034007;28;20045;-51
2021/07/04 08:51:42;;;;;;;30.33;25.85;;;20.60;91.80;;;;;;5030451;28;20079;-51
2021/07/04 08:54:08;;;;;;;32.28;26.13;;;20.60;91.70;;;;;;5031841;28;20041;-54
2021/07/04 08:56:35;;;;;;;31.92;27.65;;;20.50;92.20;;;;;;5032495;28;20501;-48
2021/07/04 08:59:01;;;;;;;34.92;28.35;;;20.50;92.50;;;;;;5036231;28;20044;-51
2021/07/04 09:01:28;;;;;;;35.33;29.52;;;20.50;92.10;;;;;;5028439;28;20037;-49
2021/07/04 09:04:06;;;;;;;31.70;27.98;;;20.70;92.00;;;;;;5031227;28;20041;-50
2021/07/04 09:06:40;;;;;;;33.40;28.77;;;20.70;91.60;;;;;;5025126;28;20114;-48
2021/07/04 09:09:36;;;;;;;33.47;28.05;;;20.60;91.70;;;;;;5025447;28;20061;-48
2021/07/04 09:12:12;;;;;;;36.67;29.08;;;20.50;92.00;;;;;;5024037;28;20398;-50
2021/07/04 09:14:46;;;;;;;29.88;26.48;;;20.50;91.90;;;;;;5027483;28;20045;-48
2021/07/04 09:17:14;;;;;;;32.42;26.10;;;20.60;92.20;;;;;;5029422;28;20463;-50
2021/07/04 09:19:52;;;;;;;31.45;26.95;;;20.70;90.80;;;;;;5031401;28;20107;-51
2021/07/04 09:22:29;;;;;;;35.88;28.85;;;20.60;90.60;;;;;;5029348;28;20041;-48
2021/07/04 09:25:16;;;;;;;32.78;25.88;;;20.60;90.70;;;;;;5032364;28;20037;-48
2021/07/04 09:28:03;;;;;;;25.52;21.92;;;20.80;89.80;;;;;;5030518;28;20045;-50
2021/07/04 09:30:34;;;;;;;29.25;23.30;;;20.80;90.20;;;;;;5027263;28;20143;-52
2021/07/04 09:33:29;;;;;;;24.63;20.92;;;20.90;90.50;;;;;;5023846;28;20415;-53
2021/07/04 09:35:59;;;;;;;24.92;19.85;;;21.00;90.80;;;;;;5031376;28;20060;-50
2021/07/04 09:38:29;;;;;;;22.23;17.90;;;21.20;90.10;;;;;;5026687;28;20043;-52
2021/07/04 09:40:55;;;;;;;23.40;18.02;;;21.30;88.40;;;;;;5025953;28;20128;-50
2021/07/04 09:43:21;;;;;;;21.75;17.08;;;21.30;88.30;;;;;;5031023;28;20471;-51
2021/07/04 09:45:53;;;;;;;22.30;18.20;;;21.40;88.80;;;;;;5029668;28;20496;-53
2021/07/04 09:48:48;;;;;;;21.65;16.70;;;21.50;87.70;;;;;;5027013;28;20061;-52
2021/07/04 09:51:19;;;;;;;23.90;19.00;;;21.50;87.90;;;;;;5030104;28;20038;-52
2021/07/04 09:53:49;;;;;;;24.87;18.93;;;21.70;85.90;;;;;;5029781;28;20050;-49
2021/07/04 09:56:29;;;;;;;26.27;20.80;;;21.80;86.70;;;;;;5026538;28;20050;-51
2021/07/04 09:59:00;;;;;;;28.83;22.48;;;21.90;85.60;;;;;;5026610;28;20504;-51
2021/07/04 10:01:37;;;;;;;24.05;19.13;;;21.90;86.20;;;;;;5025961;28;20038;-52
2021/07/04 10:04:07;;;;;;;27.20;21.60;;;22.00;85.90;;;;;;5024634;28;20167;-53
2021/07/04 10:06:47;;;;;;;21.60;18.35;;;22.20;85.80;;;;;;5025862;28;20108;-51
2021/07/04 10:09:13;;;;;;;25.60;18.98;;;22.30;84.40;;;;;;5027377;28;20095;-53
2021/07/04 10:11:39;;;;;;;23.80;18.60;;;22.30;84.70;;;;;;5029217;28;20049;-54
2021/07/04 10:14:04;;;;;;;23.13;18.73;;;22.40;85.30;;;;;;5019747;28;20048;-50
2021/07/04 10:16:31;;;;;;;25.27;19.27;;;22.50;85.10;;;;;;5027311;28;20075;-50
2021/07/04 10:19:01;;;;;;;25.65;20.55;;;22.60;83.60;;;;;;5028863;28;20087;-51
2021/07/04 10:21:27;;;;;;;28.08;21.92;;;22.60;81.80;;;;;;5031927;28;20046;-51
2021/07/04 10:23:57;;;;;;;26.63;20.95;;;22.50;81.10;;;;;;5027304;28;20058;-53
2021/07/04 10:26:24;;;;;;;35.22;21.23;;;22.40;82.50;;;;;;5024304;28;20033;-51
2021/07/04 10:28:50;;;;;;;26.98;21.38;;;22.30;82.30;;;;;;5029210;28;20502;-49
2021/07/04 10:31:18;;;;;;;28.30;21.85;;;22.40;81.80;;;;;;5032188;28;20124;-50
2021/07/04 10:33:44;;;;;;;27.48;21.85;;;22.40;83.20;;;;;;5025348;28;20044;-52
2021/07/04 10:36:20;;;;;;;26.35;20.90;;;22.60;82.10;;;;;;5026331;28;20060;-49
2021/07/04 10:38:56;;;;;;;25.25;21.13;;;22.60;82.20;;;;;;5023500;28;20041;-52
2021/07/04 10:41:26;;;;;;;25.27;20.48;;;22.80;81.50;;;;;;5029617;28;20041;-51
2021/07/04 10:43:53;;;;;;;23.00;19.15;;;23.00;80.60;;;;;;5028268;28;20045;-49
2021/07/04 10:46:51;;;;;;;23.85;20.52;;;23.00;77.80;;;;;;5045747;28;20042;-50
2021/07/04 10:49:22;;;;;;;28.88;22.00;;;23.10;78.50;;;;;;5022987;28;20098;-49
2021/07/04 10:52:10;;;;;;;27.93;22.47;;;23.20;79.10;;;;;;5026751;28;20497;-51
2021/07/04 10:54:38;;;;;;;23.80;19.02;;;23.20;78.10;;;;;;5012704;28;20110;-51
2021/07/04 10:57:08;;;;;;;28.65;21.65;;;23.20;76.50;;;;;;5027179;28;20052;-52
2021/07/04 11:00:06;;;;;;;24.23;20.98;;;23.00;76.10;;;;;;5024934;28;20040;-53
2021/07/04 11:02:54;;;;;;;24.92;19.27;;;22.80;78.20;;;;;;5023180;28;20041;-50
2021/07/04 11:05:41;;;;;;;23.58;19.23;;;22.70;80.20;;;;;;5027679;28;20105;-52
2021/07/04 11:08:09;;;;;;;25.65;19.35;;;22.60;82.20;;;;;;5024027;28;20573;-49
2021/07/04 11:10:54;;;;;;;23.58;19.45;;;22.40;83.20;;;;;;5031483;28;20049;-48
2021/07/04 11:13:19;;;;;;;26.10;19.98;;;22.30;82.50;;;;;;5022835;28;20398;-48
2021/07/04 11:15:50;;;;;;;22.15;18.67;;;22.20;83.80;;;;;;5021948;28;20038;-48
2021/07/04 11:18:20;;;;;;;20.90;17.35;;;22.10;84.80;;;;;;5020901;28;20046;-53
2021/07/04 11:20:50;;;;;;;19.85;16.33;;;22.00;85.50;;;;;;5024864;28;20103;-53
2021/07/04 11:23:24;;;;;;;20.92;16.67;;;21.90;85.60;;;;;;5025229;28;20041;-50
2021/07/04 11:25:56;;;;;;;22.05;17.20;;;21.80;86.30;;;;;;5043031;28;20049;-50
2021/07/04 11:28:31;;;;;;;18.40;15.20;;;21.70;87.10;;;;;;5024618;28;20045;-49
2021/07/04 11:31:01;;;;;;;18.52;14.52;;;21.60;88.40;;;;;;5031305;28;20045;-52
2021/07/04 11:33:36;;;;;;;20.77;16.15;;;21.40;89.30;;;;;;5025278;28;20049;-49
2021/07/04 11:36:19;;;;;;;22.90;16.23;;;21.30;90.40;;;;;;5021509;28;20045;-51
2021/07/04 11:39:08;;;;;;;24.55;17.23;;;21.20;90.60;;;;;;5023633;28;20411;-54
2021/07/04 11:41:38;;;;;;;19.60;17.20;;;21.10;91.50;;;;;;5028323;28;20041;-51
2021/07/04 11:44:12;;;;;;;22.05;18.50;;;21.00;91.80;;;;;;5027902;28;20048;-51
2021/07/04 11:46:41;;;;;;;24.55;19.48;;;20.90;92.30;;;;;;5022830;28;20084;-48
2021/07/04 11:49:12;;;;;;;24.02;20.27;;;21.00;92.40;;;;;;5022349;28;20042;-48
2021/07/04 11:51:51;;;;;;;26.05;21.10;;;21.00;93.20;;;;;;5026335;28;20037;-51
2021/07/04 11:54:22;;;;;;;27.10;22.38;;;21.00;92.90;;;;;;5023200;28;20050;-51
2021/07/04 11:56:53;;;;;;;24.10;20.60;;;20.90;92.30;;;;;;5028969;28;20065;-51
2021/07/04 11:59:24;;;;;;;22.93;19.90;;;20.90;92.40;;;;;;5031259;28;20124;-50
2021/07/04 12:01:53;;;;;;;24.73;19.63;;;20.90;92.80;;;;;;5028597;28;20068;-48
2021/07/04 12:04:34;;;;;;;24.10;20.23;;;21.00;92.80;;;;;;5030429;28;20149;-49
2021/07/04 12:07:06;;;;;;;23.03;18.97;;;21.10;93.00;;;;;;5033885;28;20060;-53
2021/07/04 12:09:37;;;;;;;22.10;18.70;;;21.20;92.00;;;;;;5033742;28;20037;-49
2021/07/04 12:12:03;;;;;;;23.57;21.07;;;21.30;90.70;;;;;;5048886;28;20049;-51
2021/07/04 12:14:35;;;;;;;23.13;19.88;;;21.30;91.80;;;;;;5036431;28;20059;-49
2021/07/04 12:17:19;;;;;;;19.35;17.25;;;21.40;92.50;;;;;;5031021;28;20033;-49
2021/07/04 12:19:50;;;;;;;19.65;17.33;;;21.40;91.70;;;;;;5036823;28;20034;-48
2021/07/04 12:22:21;;;;;;;18.50;16.60;;;21.40;91.60;;;;;;5034018;28;20045;-50
2021/07/04 12:24:48;;;;;;;18.13;15.77;;;21.60;91.10;;;;;;5026542;28;20095;-50
2021/07/04 12:27:14;;;;;;;18.38;16.48;;;21.70;87.20;;;;;;5032155;28;20063;-49
2021/07/04 12:30:18;;;;;;;12.98;11.55;;;22.00;83.30;;;;;;5029834;28;20128;-51
2021/07/04 12:32:48;;;;;;;15.07;13.15;;;22.10;79.30;;;;;;5034981;28;20050;-53
2021/07/04 12:35:32;;;;;;;14.60;13.05;;;22.10;81.80;;;;;;5032612;28;20132;-48
2021/07/04 12:38:01;;;;;;;13.13;11.38;;;22.20;82.30;;;;;;5022001;28;20080;-48